Flight Track Log - Related Links

Times and Time Zones

All times are in EDT time to prevent confusion due to time zone crossing. See the TSU191 flight status page for this flight to view local times or setup timezone preferences in your user account.

Time Position Orientation Groundspeed Altitude Reporting Facility
EDT Latitude Longitude Course Direction KTS MPH feet Rate Location/Type
Fri 07:09:02 PM 34.2447 -88.6811 14° North 175 201 21,000  Level Memphis Center
Fri 07:10:02 PM 34.2406 -88.6739 125° Southeast 28 32 21,000  Level Memphis Center
Fri 07:11:02 PM 34.2361 -88.6639 118° Southeast 23 26 21,000  Level Memphis Center
Fri 07:12:02 PM 34.2297 -88.6539 128° Southeast 28 32 21,000 -8,800 Level Memphis Center
Fri 07:13:02 PM 34.3564 -88.7494 328° Northwest 274 315 3,400 -8,000 Descending Memphis Center
Fri 07:14:00 PM 34.6570 -88.6312 14° North  Level FlightAware Approximate
Fri 07:14:02 PM 34.4061 -88.7308 17° North 196 226 5,000  Level Memphis Center
Fri 07:15:02 PM 34.4539 -88.7122 18° North 190 219 6,300 1,250 Climbing Memphis Center
Fri 07:16:02 PM 34.5078 -88.6936 16° North 190 219 7,500 1,200 Climbing Memphis Center
Fri 07:17:02 PM 34.5619 -88.6750 16° North 195 224 8,700 1,350 Climbing Memphis Center
Fri 07:18:02 PM 34.6264 -88.6536 15° North 206 237 10,200 1,350 Climbing Memphis Center
Fri 07:19:02 PM 34.6825 -88.6347 15° North 211 243 11,400 1,100 Climbing Memphis Center
Fri 07:20:02 PM 34.7406 -88.6183 13° North 211 243 12,400 1,100 Climbing Memphis Center
Fri 07:21:02 PM 34.7967 -88.6019 13° North 217 250 13,600 1,050 Climbing Memphis Center
Fri 07:22:02 PM 34.8589 -88.5831 14° North 217 250 14,500 1,000 Climbing Memphis Center
Fri 07:23:02 PM 34.9150 -88.5667 13° North 211 243 15,600 1,050 Climbing Memphis Center
Fri 07:24:02 PM 34.9733 -88.5475 15° North 205 236 16,600 950 Climbing Memphis Center
Fri 07:25:02 PM 35.0292 -88.5286 15° North 199 229 17,500 900 Climbing Memphis Center
Fri 07:26:02 PM 35.0875 -88.5122 13° North 207 238 18,400 850 Climbing Memphis Center
Fri 07:27:02 PM 35.1436 -88.4931 16° North 207 238 19,200 750 Climbing Memphis Center
Fri 07:28:02 PM 35.1933 -88.4794 13° North 207 238 19,900 700 Climbing Memphis Center
Fri 07:29:02 PM 35.2514 -88.4603 15° North 207 238 20,600 600 Climbing Memphis Center
Fri 07:30:02 PM 35.3117 -88.4486 North 207 238 21,100 250 Climbing Memphis Center
Fri 07:31:02 PM 35.3781 -88.4267 15° North 220 253 21,100 50 Level Memphis Center
Fri 07:32:02 PM 35.4467 -88.4022 16° North 236 272 21,200  Climbing Memphis Center
Fri 07:33:02 PM 35.5172 -88.3828 13° North 255 293 21,100 -50 Descending Memphis Center
Fri 07:34:02 PM 35.5878 -88.3581 16° North 260 299 21,100  Level Memphis Center
Fri 07:35:02 PM 35.6558 -88.3206 24° Northeast 260 299 21,100 50 Level Memphis Center
Fri 07:36:02 PM 35.7219 -88.2833 25° Northeast 265 305 21,200 50 Climbing Memphis Center
Fri 07:37:02 PM 35.7903 -88.2483 23° Northeast 270 311 21,200  Level Memphis Center
Fri 07:38:02 PM 35.8564 -88.2133 23° Northeast 270 311 21,200  Level Memphis Center
Fri 07:39:02 PM 35.9225 -88.1781 23° Northeast 270 311 21,200 -50 Level Memphis Center
Fri 07:40:02 PM 35.9928 -88.1431 22° Northeast 270 311 21,100  Descending Memphis Center
Fri 07:41:02 PM 36.0653 -88.1078 21° North 260 299 21,200 50 Climbing Memphis Center
Fri 07:42:02 PM 36.1311 -88.0697 25° Northeast 260 299 21,200  Level Memphis Center
Fri 07:43:02 PM 36.1994 -88.0344 23° Northeast 260 299 21,200  Level Memphis Center
Fri 07:44:02 PM 36.2656 -88.0017 22° Northeast 254 292 21,200  Level Memphis Center
Fri 07:45:02 PM 36.3333 -87.9611 26° Northeast 254 292 21,200  Level Memphis Center
Fri 07:46:02 PM 36.3975 -87.9283 22° Northeast 259 298 21,200 -50 Level Memphis Center
Fri 07:47:02 PM 36.4633 -87.8903 25° Northeast 264 304 21,100 -50 Descending Memphis Center
Fri 07:48:02 PM 36.5333 -87.8519 24° Northeast 264 304 21,100 50 Level Memphis Center
Fri 07:49:02 PM 36.6014 -87.8136 24° Northeast 269 310 21,200 50 Climbing Memphis Center
Fri 07:50:02 PM 36.6714 -87.7725 25° Northeast 269 310 21,200  Level Memphis Center
Fri 07:51:02 PM 36.7394 -87.7342 24° Northeast 274 315 21,200 -50 Level Memphis Center
Fri 07:52:02 PM 36.8156 -87.6903 25° Northeast 269 310 21,100 -50 Descending Memphis Center
Fri 07:53:02 PM 36.8856 -87.6489 25° Northeast 269 310 21,100  Level Memphis Center
Fri 07:55:26 PM 37.0425 -87.5539 26° Northeast 273 314 21,100  Level Indianapolis Center
Fri 07:56:27 PM 37.1117 -87.5117 26° Northeast 274 315 21,100  Level Indianapolis Center
Fri 07:57:29 PM 37.1797 -87.4644 29° Northeast 274 315 21,100  Level Indianapolis Center
Fri 07:58:30 PM 37.2517 -87.4289 21° North 275 316 21,100  Level Indianapolis Center
Fri 07:59:32 PM 37.3217 -87.3897 24° Northeast 272 313 21,100 49 Level Indianapolis Center
Fri 08:00:33 PM 37.3931 -87.3525 22° Northeast 275 316 21,200  Climbing Indianapolis Center
Fri 08:01:35 PM 37.4764 -87.3069 23° Northeast 277 319 21,100 -48 Descending Indianapolis Center
Fri 08:02:37 PM 37.5469 -87.2606 28° Northeast 281 323 21,100  Level Indianapolis Center
Fri 08:03:38 PM 37.6183 -87.2183 25° Northeast 281 323 21,100  Level Indianapolis Center
Fri 08:04:40 PM 37.6906 -87.1736 26° Northeast 278 320 21,100  Level Indianapolis Center
Fri 08:05:41 PM 37.7608 -87.1303 26° Northeast 280 322 21,100  Level Indianapolis Center
Fri 08:06:43 PM 37.8317 -87.0889 25° Northeast 280 322 21,100  Level Indianapolis Center
Fri 08:07:45 PM 37.9028 -87.0442 26° Northeast 283 326 21,100 49 Level Indianapolis Center
Fri 08:08:46 PM 37.9744 -87.0014 25° Northeast 284 327 21,200  Climbing Indianapolis Center
Fri 08:09:48 PM 38.0461 -86.9622 23° Northeast 282 325 21,100 -48 Descending Indianapolis Center
Fri 08:10:50 PM 38.1172 -86.9239 23° Northeast 279 321 21,100  Level Indianapolis Center
Fri 08:11:52 PM 38.2028 -86.8756 24° Northeast 281 323 21,100  Level Indianapolis Center
Fri 08:12:53 PM 38.2722 -86.8308 27° Northeast 282 325 21,100  Level Indianapolis Center
Fri 08:13:55 PM 38.3425 -86.7883 25° Northeast 281 323 21,100  Level Indianapolis Center
Fri 08:14:56 PM 38.4119 -86.7478 25° Northeast 278 320 21,100 49 Level Indianapolis Center
Fri 08:15:58 PM 38.4803 -86.7078 25° Northeast 273 314 21,200 48 Climbing Indianapolis Center
Fri 08:17:00 PM 38.5494 -86.6719 22° Northeast 270 311 21,200  Level Indianapolis Center
Fri 08:18:01 PM 38.6328 -86.6256 23° Northeast 270 311 21,200  Level Indianapolis Center
Fri 08:19:03 PM 38.7017 -86.5839 25° Northeast 273 314 21,200  Level Indianapolis Center
Fri 08:20:05 PM 38.7719 -86.5425 25° Northeast 277 319 21,200  Level Indianapolis Center
Fri 08:21:06 PM 38.8431 -86.5044 23° Northeast 276 318 21,200  Level Indianapolis Center
Fri 08:22:08 PM 38.9128 -86.4678 22° Northeast 276 318 21,200  Level Indianapolis Center
Fri 08:23:10 PM 38.9814 -86.4239 26° Northeast 276 318 21,200  Level Indianapolis Center
Fri 08:24:12 PM 39.0536 -86.3836 23° Northeast 281 323 21,200  Level Indianapolis Center
Fri 08:25:13 PM 39.1436 -86.3656 North 273 314 21,200  Level Indianapolis Center
Fri 08:26:15 PM 39.2158 -86.3294 21° North 279 321 21,200  Level Indianapolis Center
Fri 08:27:17 PM 39.2872 -86.2872 25° Northeast 282 325 21,200  Level Indianapolis Center
Fri 08:28:18 PM 39.3586 -86.2483 23° Northeast 280 322 21,200  Level Indianapolis Center
Fri 08:29:20 PM 39.4292 -86.2039 26° Northeast 284 327 21,200 -48 Level Indianapolis Center
Fri 08:30:22 PM 39.4919 -86.1372 39° Northeast 294 338 21,100 -49 Descending Indianapolis Center
Fri 08:31:23 PM 39.5539 -86.0692 40° Northeast 295 339 21,100  Level Indianapolis Center
Fri 08:32:25 PM 39.6303 -85.9925 38° Northeast 294 338 21,100 48 Level Indianapolis Center
Fri 08:33:27 PM 39.6917 -85.9264 40° Northeast 291 335 21,200  Climbing Indianapolis Center
Fri 08:34:28 PM 39.7544 -85.8606 39° Northeast 292 336 21,100 -49 Descending Indianapolis Center
Fri 08:35:30 PM 39.8169 -85.7939 39° Northeast 292 336 21,100  Level Indianapolis Center
Fri 08:36:32 PM 39.8808 -85.7306 37° Northeast 290 334 21,100  Level Indianapolis Center
Fri 08:37:33 PM 39.9586 -85.6558 36° Northeast 290 334 21,100  Level Indianapolis Center
Fri 08:38:35 PM 40.0211 -85.5892 39° Northeast 291 335 21,100  Level Indianapolis Center
Fri 08:39:37 PM 40.0864 -85.5283 35° Northeast 290 334 21,100  Level Indianapolis Center
Fri 08:40:38 PM 40.1489 -85.4636 38° Northeast 288 331 21,100  Level Indianapolis Center
Fri 08:41:40 PM 40.2128 -85.4036 36° Northeast 284 327 21,100 48 Level Indianapolis Center
Fri 08:42:42 PM 40.2772 -85.3414 36° Northeast 286 329 21,200  Climbing Indianapolis Center
Fri 08:43:43 PM 40.3403 -85.2758 38° Northeast 289 333 21,100 -43 Descending Indianapolis Center
Fri 08:45:01 PM 40.4306 -85.1919 35° Northeast 284 327 21,100  Level Chicago Center
Fri 08:46:03 PM 40.4919 -85.1292 38° Northeast 282 325 21,100 56 Level Chicago Center
Fri 08:46:48 PM 40.5406 -85.0756 40° Northeast 286 329 21,200  Climbing Indianapolis Center
Fri 08:47:50 PM 40.6089 -85.0292 27° Northeast 280 322 21,100 -48 Descending Indianapolis Center
Fri 08:48:52 PM 40.6797 -84.9861 25° Northeast 279 321 21,100  Level Indianapolis Center
Fri 08:49:53 PM 40.7486 -84.9406 27° Northeast 279 321 21,100 -244 Level Indianapolis Center
Fri 08:50:55 PM 40.8292 -84.8900 25° Northeast 275 316 20,600 -683 Descending Indianapolis Center
Fri 08:51:56 PM 40.9039 -84.8389 27° Northeast 293 337 19,700 -780 Descending Indianapolis Center
Fri 08:52:58 PM 40.9833 -84.7917 24° Northeast 306 352 19,000 -341 Descending Indianapolis Center
Fri 08:53:59 PM 41.0597 -84.7506 22° Northeast 296 341 19,000  Level Indianapolis Center
Fri 08:55:01 PM 41.1347 -84.7133 20° North 286 329 19,000 48 Level Indianapolis Center
Fri 08:56:03 PM 41.2067 -84.6781 20° North 275 316 19,100  Climbing Indianapolis Center
Fri 08:57:04 PM 41.2769 -84.6358 24° Northeast 274 315 19,000  Descending Indianapolis Center
Fri 08:58:06 PM 41.3461 -84.5900 26° Northeast 277 319 19,100 -581 Climbing Indianapolis Center
Fri 08:59:08 PM 41.4206 -84.5378 28° Northeast 278 320 17,800 -885 Descending Cleveland Center
Fri 09:00:08 PM 41.4911 -84.4839 30° Northeast 283 326 17,300 -793 Descending Cleveland Center
Fri 09:01:09 PM 41.5617 -84.4353 27° Northeast 283 326 16,200 -1,250 Descending Cleveland Center
Fri 09:02:08 PM 41.6342 -84.3869 26° Northeast 283 326 14,800 -1,664 Descending Cleveland Center
Fri 09:03:08 PM 41.7086 -84.3383 26° Northeast 288 331 12,900 -2,100 Descending Cleveland Center
Fri 09:04:08 PM 41.7831 -84.2953 23° Northeast 288 331 10,600 -2,500 Descending Cleveland Center
Fri 09:05:08 PM 41.8494 -84.2436 30° Northeast 282 325 7,900 -1,750 Descending Cleveland Center
Fri 09:06:08 PM 41.9117 -84.1883 33° Northeast 272 313 7,100 -400 Descending Cleveland Center
Fri 09:07:08 PM 41.9797 -84.1447 25° Northeast 267 307 7,100 -100 Level Cleveland Center
Fri 09:08:08 PM 42.0514 -84.1208 14° North 261 300 6,900 -600 Descending Cleveland Center
Fri 09:09:08 PM 42.1292 -84.0944 14° North 261 300 5,900 -1,200 Descending Cleveland Center
Fri 09:10:08 PM 42.2031 -84.0647 17° North 261 300 4,500 -1,235 Descending Cleveland Center
Fri 09:11:24 PM 42.2878 -84.0244 19° North 251 289 3,100 -629 Descending Cleveland Center
Fri 09:12:31 PM 42.3600 -83.9833 23° Northeast 254 292 3,000 -47 Descending Cleveland Center
Fri 09:13:31 PM 42.4278 -83.9422 24° Northeast 263 303 3,000  Level Cleveland Center
Fri 09:14:32 PM 42.4897 -83.8947 29° Northeast 259 298 3,000  Level Cleveland Center
Fri 09:15:33 PM 42.5556 -83.8503 26° Northeast 258 297 3,000 49 Level Cleveland Center
Fri 09:16:34 PM 42.6114 -83.7939 37° Northeast 224 258 3,100  Climbing Cleveland Center
Fri 09:17:35 PM 42.6461 -83.7419 48° Northeast 173 199 3,000  Descending Cleveland Center
Fri 09:18:36 PM 42.6583 -83.6806 75° East 170 196 3,100 49 Climbing Cleveland Center
Fri 09:19:37 PM 42.6600 -83.6100 88° East 177 204 3,100 -52 Level Cleveland Center
Fri 09:20:32 PM 42.6594 -83.5564 91° East 157 181 3,000 -517 Descending Cleveland Center
Fri 09:21:33 PM 42.6608 -83.5028 88° East 140 161 2,100 -787 Descending Cleveland Center
Fri 09:22:34 PM 42.6622 -83.4492 88° East 120 138 1,400 -689 Descending Cleveland Center

Login

Don't have an account? Register now (free) for customized features, flight alerts, and more!